sensor_id;sensor_type;location;lat;lon;timestamp;temperature;humidity
463;DHT22;218;51.902;9.542;2022-07-23T00:01:44;19.30;1.00
463;DHT22;218;51.902;9.542;2022-07-23T00:04:13;19.30;1.00
463;DHT22;218;51.902;9.542;2022-07-23T00:06:42;19.30;1.00
463;DHT22;218;51.902;9.542;2022-07-23T00:09:09;19.30;1.00
463;DHT22;218;51.902;9.542;2022-07-23T00:11:36;19.30;1.00
463;DHT22;218;51.902;9.542;2022-07-23T00:14:03;19.30;1.00
463;DHT22;218;51.902;9.542;2022-07-23T00:16:32;19.30;1.00
463;DHT22;218;51.902;9.542;2022-07-23T00:18:59;19.20;1.00
463;DHT22;218;51.902;9.542;2022-07-23T00:21:28;19.20;1.00
463;DHT22;218;51.902;9.542;2022-07-23T00:23:55;19.20;1.00
463;DHT22;218;51.902;9.542;2022-07-23T00:26:22;19.20;1.00
463;DHT22;218;51.902;9.542;2022-07-23T00:28:50;19.20;1.00
463;DHT22;218;51.902;9.542;2022-07-23T00:31:26;19.20;1.00
463;DHT22;218;51.902;9.542;2022-07-23T00:33:54;19.20;1.00
463;DHT22;218;51.902;9.542;2022-07-23T00:36:22;19.20;1.00
463;DHT22;218;51.902;9.542;2022-07-23T00:38:50;19.20;1.00
463;DHT22;218;51.902;9.542;2022-07-23T00:41:17;19.20;1.00
463;DHT22;218;51.902;9.542;2022-07-23T00:43:44;19.20;1.00
463;DHT22;218;51.902;9.542;2022-07-23T00:46:11;19.20;1.00
463;DHT22;218;51.902;9.542;2022-07-23T00:48:40;19.20;1.00
463;DHT22;218;51.902;9.542;2022-07-23T00:51:09;19.20;1.00
463;DHT22;218;51.902;9.542;2022-07-23T00:53:37;19.10;1.00
463;DHT22;218;51.902;9.542;2022-07-23T00:56:06;19.10;1.00
463;DHT22;218;51.902;9.542;2022-07-23T00:58:35;19.10;1.00
463;DHT22;218;51.902;9.542;2022-07-23T01:01:02;19.10;1.00
463;DHT22;218;51.902;9.542;2022-07-23T01:03:29;19.10;1.00
463;DHT22;218;51.902;9.542;2022-07-23T01:05:56;19.10;1.00
463;DHT22;218;51.902;9.542;2022-07-23T01:08:25;19.10;1.00
463;DHT22;218;51.902;9.542;2022-07-23T01:10:52;19.10;1.00
463;DHT22;218;51.902;9.542;2022-07-23T01:13:20;19.10;1.00
463;DHT22;218;51.902;9.542;2022-07-23T01:15:46;19.10;1.00
463;DHT22;218;51.902;9.542;2022-07-23T01:18:13;19.10;1.00
463;DHT22;218;51.902;9.542;2022-07-23T01:20:41;19.10;1.00
463;DHT22;218;51.902;9.542;2022-07-23T01:23:09;19.00;1.00
463;DHT22;218;51.902;9.542;2022-07-23T01:25:36;19.00;1.00
463;DHT22;218;51.902;9.542;2022-07-23T01:28:04;19.00;1.00
463;DHT22;218;51.902;9.542;2022-07-23T01:30:31;19.00;1.00
463;DHT22;218;51.902;9.542;2022-07-23T01:32:58;19.00;1.00
463;DHT22;218;51.902;9.542;2022-07-23T01:35:25;18.90;1.00
463;DHT22;218;51.902;9.542;2022-07-23T01:37:52;18.90;1.00
463;DHT22;218;51.902;9.542;2022-07-23T01:40:20;18.80;1.00
463;DHT22;218;51.902;9.542;2022-07-23T01:42:48;18.80;1.00
463;DHT22;218;51.902;9.542;2022-07-23T01:45:15;18.80;1.00
463;DHT22;218;51.902;9.542;2022-07-23T01:47:42;18.80;1.00
463;DHT22;218;51.902;9.542;2022-07-23T01:50:09;18.70;1.00
463;DHT22;218;51.902;9.542;2022-07-23T01:52:48;18.70;1.00
463;DHT22;218;51.902;9.542;2022-07-23T01:55:27;18.70;1.00
463;DHT22;218;51.902;9.542;2022-07-23T01:57:54;18.60;1.00
463;DHT22;218;51.902;9.542;2022-07-23T02:00:22;18.60;1.00
463;DHT22;218;51.902;9.542;2022-07-23T02:02:49;18.60;1.00
463;DHT22;218;51.902;9.542;2022-07-23T02:05:16;18.60;1.00
463;DHT22;218;51.902;9.542;2022-07-23T02:07:43;18.60;1.00
463;DHT22;218;51.902;9.542;2022-07-23T02:10:10;18.60;1.00
463;DHT22;218;51.902;9.542;2022-07-23T02:12:38;18.60;1.00
463;DHT22;218;51.902;9.542;2022-07-23T02:15:06;18.70;1.00
463;DHT22;218;51.902;9.542;2022-07-23T02:17:33;18.70;1.00
463;DHT22;218;51.902;9.542;2022-07-23T02:20:00;18.70;1.00
463;DHT22;218;51.902;9.542;2022-07-23T02:22:27;18.70;1.00
463;DHT22;218;51.902;9.542;2022-07-23T02:24:54;18.70;1.00
463;DHT22;218;51.902;9.542;2022-07-23T02:27:22;18.70;1.00
463;DHT22;218;51.902;9.542;2022-07-23T02:29:50;18.70;1.00
463;DHT22;218;51.902;9.542;2022-07-23T02:32:25;18.70;1.00
463;DHT22;218;51.902;9.542;2022-07-23T02:35:07;18.70;1.00
463;DHT22;218;51.902;9.542;2022-07-23T02:37:34;18.80;1.00
463;DHT22;218;51.902;9.542;2022-07-23T02:40:01;18.80;1.00
463;DHT22;218;51.902;9.542;2022-07-23T02:42:28;18.80;1.00
463;DHT22;218;51.902;9.542;2022-07-23T02:44:56;18.80;1.00
463;DHT22;218;51.902;9.542;2022-07-23T02:47:23;18.80;1.00
463;DHT22;218;51.902;9.542;2022-07-23T02:49:50;18.80;1.00
463;DHT22;218;51.902;9.542;2022-07-23T02:52:17;18.90;1.00
463;DHT22;218;51.902;9.542;2022-07-23T02:54:44;18.80;1.00
463;DHT22;218;51.902;9.542;2022-07-23T02:57:11;18.90;1.00
463;DHT22;218;51.902;9.542;2022-07-23T02:59:39;18.90;1.00
463;DHT22;218;51.902;9.542;2022-07-23T03:02:07;18.90;1.00
463;DHT22;218;51.902;9.542;2022-07-23T03:04:34;18.90;1.00
463;DHT22;218;51.902;9.542;2022-07-23T03:07:01;18.90;1.00
463;DHT22;218;51.902;9.542;2022-07-23T03:09:28;18.90;1.00
463;DHT22;218;51.902;9.542;2022-07-23T03:12:12;18.90;1.00
463;DHT22;218;51.902;9.542;2022-07-23T03:15:00;19.00;1.00
463;DHT22;218;51.902;9.542;2022-07-23T03:17:28;19.00;1.00
463;DHT22;218;51.902;9.542;2022-07-23T03:19:55;19.00;1.00
463;DHT22;218;51.902;9.542;2022-07-23T03:22:23;19.00;1.00
463;DHT22;218;51.902;9.542;2022-07-23T03:24:50;19.00;1.00
463;DHT22;218;51.902;9.542;2022-07-23T03:27:23;19.00;1.00
463;DHT22;218;51.902;9.542;2022-07-23T03:29:51;19.00;1.00
463;DHT22;218;51.902;9.542;2022-07-23T03:32:18;19.00;1.00
463;DHT22;218;51.902;9.542;2022-07-23T03:34:47;19.10;1.00
463;DHT22;218;51.902;9.542;2022-07-23T03:37:14;19.10;1.00
463;DHT22;218;51.902;9.542;2022-07-23T03:39:41;19.10;1.00
463;DHT22;218;51.902;9.542;2022-07-23T03:42:08;19.10;1.00
463;DHT22;218;51.902;9.542;2022-07-23T03:44:35;19.10;1.00
463;DHT22;218;51.902;9.542;2022-07-23T03:47:04;19.10;1.00
463;DHT22;218;51.902;9.542;2022-07-23T03:49:32;19.10;1.00
463;DHT22;218;51.902;9.542;2022-07-23T03:52:00;19.10;1.00
463;DHT22;218;51.902;9.542;2022-07-23T03:54:28;19.10;1.00
463;DHT22;218;51.902;9.542;2022-07-23T03:56:55;19.10;1.00
463;DHT22;218;51.902;9.542;2022-07-23T03:59:22;19.10;1.00
463;DHT22;218;51.902;9.542;2022-07-23T04:01:49;19.10;1.00
463;DHT22;218;51.902;9.542;2022-07-23T04:04:16;19.10;1.00
463;DHT22;218;51.902;9.542;2022-07-23T04:06:43;19.10;1.00
463;DHT22;218;51.902;9.542;2022-07-23T04:09:11;19.10;1.00
463;DHT22;218;51.902;9.542;2022-07-23T04:11:38;19.10;1.00
463;DHT22;218;51.902;9.542;2022-07-23T04:14:05;19.10;1.00
463;DHT22;218;51.902;9.542;2022-07-23T04:16:32;19.10;1.00
463;DHT22;218;51.902;9.542;2022-07-23T04:18:59;19.10;1.00
463;DHT22;218;51.902;9.542;2022-07-23T04:21:26;19.10;1.00
463;DHT22;218;51.902;9.542;2022-07-23T04:23:54;19.10;1.00
463;DHT22;218;51.902;9.542;2022-07-23T04:26:22;19.10;1.00
463;DHT22;218;51.902;9.542;2022-07-23T04:28:49;19.10;1.00
463;DHT22;218;51.902;9.542;2022-07-23T04:31:16;19.20;1.00
463;DHT22;218;51.902;9.542;2022-07-23T04:33:43;19.20;1.00
463;DHT22;218;51.902;9.542;2022-07-23T04:36:12;19.20;1.00
463;DHT22;218;51.902;9.542;2022-07-23T04:38:39;19.20;1.00
463;DHT22;218;51.902;9.542;2022-07-23T04:41:07;19.20;1.00
463;DHT22;218;51.902;9.542;2022-07-23T04:43:35;19.20;1.00
463;DHT22;218;51.902;9.542;2022-07-23T04:46:02;19.20;1.00
463;DHT22;218;51.902;9.542;2022-07-23T04:48:29;19.20;1.00
463;DHT22;218;51.902;9.542;2022-07-23T04:50:56;19.20;1.00
463;DHT22;218;51.902;9.542;2022-07-23T04:53:23;19.20;1.00
463;DHT22;218;51.902;9.542;2022-07-23T04:55:50;19.20;1.00
463;DHT22;218;51.902;9.542;2022-07-23T04:58:17;19.20;1.00
463;DHT22;218;51.902;9.542;2022-07-23T05:00:46;19.20;1.00
463;DHT22;218;51.902;9.542;2022-07-23T05:03:13;19.20;1.00
463;DHT22;218;51.902;9.542;2022-07-23T05:05:40;19.30;1.00
463;DHT22;218;51.902;9.542;2022-07-23T05:08:07;19.30;1.00
463;DHT22;218;51.902;9.542;2022-07-23T05:10:34;19.30;1.00
463;DHT22;218;51.902;9.542;2022-07-23T05:13:01;19.30;1.00
463;DHT22;218;51.902;9.542;2022-07-23T05:15:28;19.30;1.00
463;DHT22;218;51.902;9.542;2022-07-23T05:17:57;19.30;1.00
463;DHT22;218;51.902;9.542;2022-07-23T05:20:24;19.30;1.00
463;DHT22;218;51.902;9.542;2022-07-23T05:22:51;19.30;1.00
463;DHT22;218;51.902;9.542;2022-07-23T05:25:18;19.30;1.00
463;DHT22;218;51.902;9.542;2022-07-23T05:27:45;19.40;1.00
463;DHT22;218;51.902;9.542;2022-07-23T05:30:12;19.40;1.00
463;DHT22;218;51.902;9.542;2022-07-23T05:32:40;19.40;1.00
463;DHT22;218;51.902;9.542;2022-07-23T05:35:08;19.40;1.00
463;DHT22;218;51.902;9.542;2022-07-23T05:37:35;19.40;1.00
463;DHT22;218;51.902;9.542;2022-07-23T05:40:03;19.40;1.00
463;DHT22;218;51.902;9.542;2022-07-23T05:42:31;19.40;1.00
463;DHT22;218;51.902;9.542;2022-07-23T05:45:01;19.40;1.00
463;DHT22;218;51.902;9.542;2022-07-23T05:47:28;19.40;1.00
463;DHT22;218;51.902;9.542;2022-07-23T05:49:56;19.40;1.00
463;DHT22;218;51.902;9.542;2022-07-23T05:52:24;19.40;1.00
463;DHT22;218;51.902;9.542;2022-07-23T05:54:51;19.40;1.00
463;DHT22;218;51.902;9.542;2022-07-23T05:57:18;19.40;1.00
463;DHT22;218;51.902;9.542;2022-07-23T05:59:45;19.40;1.00
463;DHT22;218;51.902;9.542;2022-07-23T06:02:12;19.50;1.00
463;DHT22;218;51.902;9.542;2022-07-23T06:04:39;19.50;1.00
463;DHT22;218;51.902;9.542;2022-07-23T06:07:06;19.50;1.00
463;DHT22;218;51.902;9.542;2022-07-23T06:09:34;19.60;1.00
463;DHT22;218;51.902;9.542;2022-07-23T06:12:01;19.60;1.00
463;DHT22;218;51.902;9.542;2022-07-23T06:14:28;19.60;1.00
463;DHT22;218;51.902;9.542;2022-07-23T06:16:55;19.60;1.00
463;DHT22;218;51.902;9.542;2022-07-23T06:19:22;19.60;1.00
463;DHT22;218;51.902;9.542;2022-07-23T06:21:49;19.70;1.00
463;DHT22;218;51.902;9.542;2022-07-23T06:24:17;19.70;1.00
463;DHT22;218;51.902;9.542;2022-07-23T06:26:45;19.70;1.00
463;DHT22;218;51.902;9.542;2022-07-23T06:29:12;19.80;1.00
463;DHT22;218;51.902;9.542;2022-07-23T06:31:39;19.80;1.00
463;DHT22;218;51.902;9.542;2022-07-23T06:34:06;19.80;1.00
463;DHT22;218;51.902;9.542;2022-07-23T06:36:33;19.80;1.00
463;DHT22;218;51.902;9.542;2022-07-23T06:39:00;19.80;1.00
463;DHT22;218;51.902;9.542;2022-07-23T06:41:28;19.90;1.00
463;DHT22;218;51.902;9.542;2022-07-23T06:43:56;19.90;1.00
463;DHT22;218;51.902;9.542;2022-07-23T06:46:23;19.90;1.00
463;DHT22;218;51.902;9.542;2022-07-23T06:48:50;19.90;1.00
463;DHT22;218;51.902;9.542;2022-07-23T06:51:18;20.00;1.00
463;DHT22;218;51.902;9.542;2022-07-23T06:53:45;20.00;1.00
463;DHT22;218;51.902;9.542;2022-07-23T06:56:12;20.10;1.00
463;DHT22;218;51.902;9.542;2022-07-23T06:58:39;20.10;1.00
463;DHT22;218;51.902;9.542;2022-07-23T07:01:08;20.10;1.00
463;DHT22;218;51.902;9.542;2022-07-23T07:03:35;20.10;1.00
463;DHT22;218;51.902;9.542;2022-07-23T07:06:02;20.20;1.00
463;DHT22;218;51.902;9.542;2022-07-23T07:08:29;20.20;1.00
463;DHT22;218;51.902;9.542;2022-07-23T07:10:56;20.30;1.00
463;DHT22;218;51.902;9.542;2022-07-23T07:13:23;20.30;1.00
463;DHT22;218;51.902;9.542;2022-07-23T07:15:50;20.30;1.00
463;DHT22;218;51.902;9.542;2022-07-23T07:18:18;20.40;1.00
463;DHT22;218;51.902;9.542;2022-07-23T07:20:45;20.40;1.00
463;DHT22;218;51.902;9.542;2022-07-23T07:23:12;20.50;1.00
463;DHT22;218;51.902;9.542;2022-07-23T07:25:40;20.60;1.00
463;DHT22;218;51.902;9.542;2022-07-23T07:28:07;20.60;1.00
463;DHT22;218;51.902;9.542;2022-07-23T07:30:34;20.60;1.00
463;DHT22;218;51.902;9.542;2022-07-23T07:33:01;20.70;1.00
463;DHT22;218;51.902;9.542;2022-07-23T07:35:29;20.80;1.00
463;DHT22;218;51.902;9.542;2022-07-23T07:37:58;20.80;1.00
463;DHT22;218;51.902;9.542;2022-07-23T07:40:26;20.90;1.00
463;DHT22;218;51.902;9.542;2022-07-23T07:42:54;20.90;1.00
463;DHT22;218;51.902;9.542;2022-07-23T07:45:23;21.00;1.00
463;DHT22;218;51.902;9.542;2022-07-23T07:47:51;21.00;1.00
463;DHT22;218;51.902;9.542;2022-07-23T07:50:18;21.10;1.00
463;DHT22;218;51.902;9.542;2022-07-23T07:52:47;21.20;1.00
463;DHT22;218;51.902;9.542;2022-07-23T07:55:14;21.30;1.00
463;DHT22;218;51.902;9.542;2022-07-23T07:57:42;21.30;1.00
463;DHT22;218;51.902;9.542;2022-07-23T08:00:10;21.40;1.00
463;DHT22;218;51.902;9.542;2022-07-23T08:02:41;21.40;1.00
463;DHT22;218;51.902;9.542;2022-07-23T08:05:09;21.50;1.00
463;DHT22;218;51.902;9.542;2022-07-23T08:07:37;21.50;1.00
463;DHT22;218;51.902;9.542;2022-07-23T08:10:08;21.50;1.00
463;DHT22;218;51.902;9.542;2022-07-23T08:12:40;21.60;1.00
463;DHT22;218;51.902;9.542;2022-07-23T08:15:08;21.60;1.00
463;DHT22;218;51.902;9.542;2022-07-23T08:17:36;21.60;1.00
463;DHT22;218;51.902;9.542;2022-07-23T08:20:04;21.70;1.00
463;DHT22;218;51.902;9.542;2022-07-23T08:22:45;21.70;1.00
463;DHT22;218;51.902;9.542;2022-07-23T08:28:19;21.90;1.00
463;DHT22;218;51.902;9.542;2022-07-23T08:30:47;21.90;1.00
463;DHT22;218;51.902;9.542;2022-07-23T08:33:15;22.00;1.00
463;DHT22;218;51.902;9.542;2022-07-23T08:35:43;22.00;1.00
463;DHT22;218;51.902;9.542;2022-07-23T08:38:13;22.10;1.00
463;DHT22;218;51.902;9.542;2022-07-23T08:40:42;22.10;1.00
463;DHT22;218;51.902;9.542;2022-07-23T08:43:11;22.20;1.00
463;DHT22;218;51.902;9.542;2022-07-23T08:45:41;22.20;1.00
463;DHT22;218;51.902;9.542;2022-07-23T08:48:11;22.20;1.00
463;DHT22;218;51.902;9.542;2022-07-23T08:50:42;22.30;1.00
463;DHT22;218;51.902;9.542;2022-07-23T08:53:10;22.30;1.00
463;DHT22;218;51.902;9.542;2022-07-23T08:55:37;22.40;1.00
463;DHT22;218;51.902;9.542;2022-07-23T08:58:05;22.40;1.00
463;DHT22;218;51.902;9.542;2022-07-23T09:00:32;22.50;1.00
463;DHT22;218;51.902;9.542;2022-07-23T09:03:01;22.60;1.00
463;DHT22;218;51.902;9.542;2022-07-23T09:05:29;22.70;1.00
463;DHT22;218;51.902;9.542;2022-07-23T09:08:07;22.80;1.00
463;DHT22;218;51.902;9.542;2022-07-23T09:10:50;22.80;1.00
463;DHT22;218;51.902;9.542;2022-07-23T09:13:25;22.90;1.00
463;DHT22;218;51.902;9.542;2022-07-23T09:15:54;23.00;1.00
463;DHT22;218;51.902;9.542;2022-07-23T09:18:31;23.00;1.00
463;DHT22;218;51.902;9.542;2022-07-23T09:21:19;23.00;1.00
463;DHT22;218;51.902;9.542;2022-07-23T09:23:50;23.10;1.00
463;DHT22;218;51.902;9.542;2022-07-23T09:26:23;23.20;1.00
463;DHT22;218;51.902;9.542;2022-07-23T09:28:52;23.30;1.00
463;DHT22;218;51.902;9.542;2022-07-23T09:31:23;23.30;1.00
463;DHT22;218;51.902;9.542;2022-07-23T09:34:01;23.40;1.00
463;DHT22;218;51.902;9.542;2022-07-23T09:36:32;23.50;1.00
463;DHT22;218;51.902;9.542;2022-07-23T09:38:59;23.50;1.00
463;DHT22;218;51.902;9.542;2022-07-23T09:41:34;23.50;1.00
463;DHT22;218;51.902;9.542;2022-07-23T09:44:07;23.50;1.00
463;DHT22;218;51.902;9.542;2022-07-23T09:46:35;23.50;1.00
463;DHT22;218;51.902;9.542;2022-07-23T09:49:11;23.60;1.00
463;DHT22;218;51.902;9.542;2022-07-23T09:51:48;23.60;1.00
463;DHT22;218;51.902;9.542;2022-07-23T09:54:30;23.60;1.00
463;DHT22;218;51.902;9.542;2022-07-23T09:57:03;23.70;1.00
463;DHT22;218;51.902;9.542;2022-07-23T09:59:35;23.70;1.00
463;DHT22;218;51.902;9.542;2022-07-23T10:02:04;23.70;1.00
463;DHT22;218;51.902;9.542;2022-07-23T10:04:34;23.70;1.00
463;DHT22;218;51.902;9.542;2022-07-23T10:07:03;23.80;1.00
463;DHT22;218;51.902;9.542;2022-07-23T10:09:32;23.80;1.00
463;DHT22;218;51.902;9.542;2022-07-23T10:12:00;23.90;1.00
463;DHT22;218;51.902;9.542;2022-07-23T10:14:35;23.90;1.00
463;DHT22;218;51.902;9.542;2022-07-23T10:17:03;24.00;1.00
463;DHT22;218;51.902;9.542;2022-07-23T10:19:30;24.10;1.00
463;DHT22;218;51.902;9.542;2022-07-23T10:22:01;24.20;1.00
463;DHT22;218;51.902;9.542;2022-07-23T10:24:38;24.30;1.00
463;DHT22;218;51.902;9.542;2022-07-23T10:27:27;24.30;1.00
463;DHT22;218;51.902;9.542;2022-07-23T10:30:03;24.50;1.00
463;DHT22;218;51.902;9.542;2022-07-23T10:32:40;24.60;1.00
463;DHT22;218;51.902;9.542;2022-07-23T10:35:21;24.70;1.00
463;DHT22;218;51.902;9.542;2022-07-23T10:37:56;24.80;1.00
463;DHT22;218;51.902;9.542;2022-07-23T10:40:26;24.90;1.00
463;DHT22;218;51.902;9.542;2022-07-23T10:42:59;25.10;1.00
463;DHT22;218;51.902;9.542;2022-07-23T10:45:31;25.20;1.00
463;DHT22;218;51.902;9.542;2022-07-23T10:48:13;25.30;1.00
463;DHT22;218;51.902;9.542;2022-07-23T10:50:41;25.40;1.00
463;DHT22;218;51.902;9.542;2022-07-23T10:53:12;25.50;1.00
463;DHT22;218;51.902;9.542;2022-07-23T10:55:47;25.50;1.00
463;DHT22;218;51.902;9.542;2022-07-23T10:58:20;25.60;1.00
463;DHT22;218;51.902;9.542;2022-07-23T11:00:48;25.70;1.00
463;DHT22;218;51.902;9.542;2022-07-23T11:03:39;25.70;1.00
463;DHT22;218;51.902;9.542;2022-07-23T11:09:39;25.90;1.00
463;DHT22;218;51.902;9.542;2022-07-23T11:12:36;25.90;1.00
463;DHT22;218;51.902;9.542;2022-07-23T11:15:06;26.00;1.00
463;DHT22;218;51.902;9.542;2022-07-23T11:17:35;26.00;1.00
463;DHT22;218;51.902;9.542;2022-07-23T11:20:30;26.10;1.00
463;DHT22;218;51.902;9.542;2022-07-23T11:22:58;26.20;1.00
463;DHT22;218;51.902;9.542;2022-07-23T11:25:34;26.30;1.00
463;DHT22;218;51.902;9.542;2022-07-23T11:28:15;26.30;1.00
463;DHT22;218;51.902;9.542;2022-07-23T11:30:44;26.40;1.00
463;DHT22;218;51.902;9.542;2022-07-23T11:33:20;26.40;1.00
463;DHT22;218;51.902;9.542;2022-07-23T11:35:49;26.50;1.00
463;DHT22;218;51.902;9.542;2022-07-23T11:38:19;26.60;1.00
463;DHT22;218;51.902;9.542;2022-07-23T11:40:53;26.60;1.00
463;DHT22;218;51.902;9.542;2022-07-23T11:43:22;26.60;1.00
463;DHT22;218;51.902;9.542;2022-07-23T11:45:51;26.80;1.00
463;DHT22;218;51.902;9.542;2022-07-23T11:48:19;26.90;1.00
463;DHT22;218;51.902;9.542;2022-07-23T11:50:47;27.00;1.00
463;DHT22;218;51.902;9.542;2022-07-23T11:53:21;27.00;1.00
463;DHT22;218;51.902;9.542;2022-07-23T11:55:50;27.10;1.00
463;DHT22;218;51.902;9.542;2022-07-23T11:58:18;27.10;1.00
463;DHT22;218;51.902;9.542;2022-07-23T12:00:45;27.20;1.00
463;DHT22;218;51.902;9.542;2022-07-23T12:03:13;27.20;1.00
463;DHT22;218;51.902;9.542;2022-07-23T12:05:40;27.30;1.00
463;DHT22;218;51.902;9.542;2022-07-23T12:08:09;27.30;1.00
463;DHT22;218;51.902;9.542;2022-07-23T12:10:37;27.40;1.00
463;DHT22;218;51.902;9.542;2022-07-23T12:13:07;27.50;1.00
463;DHT22;218;51.902;9.542;2022-07-23T12:15:38;27.50;1.00
463;DHT22;218;51.902;9.542;2022-07-23T12:18:06;27.60;1.00
463;DHT22;218;51.902;9.542;2022-07-23T12:20:35;27.60;1.00
463;DHT22;218;51.902;9.542;2022-07-23T12:23:04;27.70;1.00
463;DHT22;218;51.902;9.542;2022-07-23T12:25:33;27.70;1.00
463;DHT22;218;51.902;9.542;2022-07-23T12:28:03;27.80;1.00
463;DHT22;218;51.902;9.542;2022-07-23T12:30:34;27.90;1.00
463;DHT22;218;51.902;9.542;2022-07-23T12:33:02;28.00;1.00
463;DHT22;218;51.902;9.542;2022-07-23T12:35:35;28.00;1.00
463;DHT22;218;51.902;9.542;2022-07-23T12:38:05;28.10;1.00
463;DHT22;218;51.902;9.542;2022-07-23T12:40:34;28.20;1.00
463;DHT22;218;51.902;9.542;2022-07-23T12:43:04;28.30;1.00
463;DHT22;218;51.902;9.542;2022-07-23T12:45:54;28.40;1.00
463;DHT22;218;51.902;9.542;2022-07-23T12:48:24;28.50;1.00
463;DHT22;218;51.902;9.542;2022-07-23T12:50:53;28.60;1.00
463;DHT22;218;51.902;9.542;2022-07-23T12:53:22;28.60;1.00
463;DHT22;218;51.902;9.542;2022-07-23T12:55:51;28.70;1.00
463;DHT22;218;51.902;9.542;2022-07-23T12:58:23;28.80;1.00
463;DHT22;218;51.902;9.542;2022-07-23T13:00:58;28.80;1.00
463;DHT22;218;51.902;9.542;2022-07-23T13:03:37;28.80;1.00
463;DHT22;218;51.902;9.542;2022-07-23T13:06:06;28.90;1.00
463;DHT22;218;51.902;9.542;2022-07-23T13:08:35;29.00;1.00
463;DHT22;218;51.902;9.542;2022-07-23T13:11:05;29.00;1.00
463;DHT22;218;51.902;9.542;2022-07-23T13:13:35;29.10;1.00
463;DHT22;218;51.902;9.542;2022-07-23T13:16:04;29.20;1.00
463;DHT22;218;51.902;9.542;2022-07-23T13:18:31;29.20;1.00
463;DHT22;218;51.902;9.542;2022-07-23T13:20:59;29.30;1.00
463;DHT22;218;51.902;9.542;2022-07-23T13:23:26;29.40;1.00
463;DHT22;218;51.902;9.542;2022-07-23T13:25:54;29.40;1.00
463;DHT22;218;51.902;9.542;2022-07-23T13:28:22;29.50;1.00
463;DHT22;218;51.902;9.542;2022-07-23T13:30:50;29.50;1.00
463;DHT22;218;51.902;9.542;2022-07-23T13:33:19;29.60;1.00
463;DHT22;218;51.902;9.542;2022-07-23T13:35:47;29.60;1.00
463;DHT22;218;51.902;9.542;2022-07-23T13:38:16;29.60;1.00
463;DHT22;218;51.902;9.542;2022-07-23T13:40:45;29.60;1.00
463;DHT22;218;51.902;9.542;2022-07-23T13:43:14;29.60;1.00
463;DHT22;218;51.902;9.542;2022-07-23T13:45:41;29.60;1.00
463;DHT22;218;51.902;9.542;2022-07-23T13:48:10;29.70;1.00
463;DHT22;218;51.902;9.542;2022-07-23T13:50:40;29.70;1.00
463;DHT22;218;51.902;9.542;2022-07-23T13:53:09;29.80;1.00
463;DHT22;218;51.902;9.542;2022-07-23T13:55:38;29.80;1.00
463;DHT22;218;51.902;9.542;2022-07-23T13:58:07;29.90;1.00
463;DHT22;218;51.902;9.542;2022-07-23T14:00:36;29.90;1.00
463;DHT22;218;51.902;9.542;2022-07-23T14:03:04;30.00;1.00
463;DHT22;218;51.902;9.542;2022-07-23T14:05:32;30.00;1.00
463;DHT22;218;51.902;9.542;2022-07-23T14:08:00;30.10;1.00
463;DHT22;218;51.902;9.542;2022-07-23T14:10:28;30.10;1.00
463;DHT22;218;51.902;9.542;2022-07-23T14:12:55;30.20;1.00
463;DHT22;218;51.902;9.542;2022-07-23T14:15:23;30.20;1.00
463;DHT22;218;51.902;9.542;2022-07-23T14:17:52;30.30;1.00
463;DHT22;218;51.902;9.542;2022-07-23T14:20:21;30.30;1.00
463;DHT22;218;51.902;9.542;2022-07-23T14:22:48;30.40;1.00
463;DHT22;218;51.902;9.542;2022-07-23T14:25:17;30.40;1.00
463;DHT22;218;51.902;9.542;2022-07-23T14:27:45;30.50;1.00
463;DHT22;218;51.902;9.542;2022-07-23T14:30:13;30.60;1.00
463;DHT22;218;51.902;9.542;2022-07-23T14:32:41;30.70;1.00
463;DHT22;218;51.902;9.542;2022-07-23T14:35:09;30.80;1.00
463;DHT22;218;51.902;9.542;2022-07-23T14:37:36;30.80;1.00
463;DHT22;218;51.902;9.542;2022-07-23T14:40:04;30.90;1.00
463;DHT22;218;51.902;9.542;2022-07-23T14:42:33;30.90;1.00
463;DHT22;218;51.902;9.542;2022-07-23T14:45:00;30.90;1.00
463;DHT22;218;51.902;9.542;2022-07-23T14:47:27;30.90;1.00
463;DHT22;218;51.902;9.542;2022-07-23T14:49:54;30.90;1.00
463;DHT22;218;51.902;9.542;2022-07-23T14:52:21;30.90;1.00
463;DHT22;218;51.902;9.542;2022-07-23T14:54:48;30.90;1.00
463;DHT22;218;51.902;9.542;2022-07-23T14:57:14;30.90;1.00
463;DHT22;218;51.902;9.542;2022-07-23T14:59:43;30.90;1.00
463;DHT22;218;51.902;9.542;2022-07-23T15:02:11;30.90;1.00
463;DHT22;218;51.902;9.542;2022-07-23T15:04:38;31.00;1.00
463;DHT22;218;51.902;9.542;2022-07-23T15:07:05;30.90;1.00
463;DHT22;218;51.902;9.542;2022-07-23T15:09:32;30.90;1.00
463;DHT22;218;51.902;9.542;2022-07-23T15:11:59;30.90;1.00
463;DHT22;218;51.902;9.542;2022-07-23T15:14:26;30.90;1.00
463;DHT22;218;51.902;9.542;2022-07-23T15:16:55;30.90;1.00
463;DHT22;218;51.902;9.542;2022-07-23T15:19:22;30.80;1.00
463;DHT22;218;51.902;9.542;2022-07-23T15:21:49;30.90;1.00
463;DHT22;218;51.902;9.542;2022-07-23T15:24:16;30.80;1.00
463;DHT22;218;51.902;9.542;2022-07-23T15:26:43;30.80;1.00
463;DHT22;218;51.902;9.542;2022-07-23T15:29:10;30.80;1.00
463;DHT22;218;51.902;9.542;2022-07-23T15:31:37;30.70;1.00
463;DHT22;218;51.902;9.542;2022-07-23T15:34:06;30.70;1.00
463;DHT22;218;51.902;9.542;2022-07-23T15:36:33;30.60;1.00
463;DHT22;218;51.902;9.542;2022-07-23T15:39:00;30.60;1.00
463;DHT22;218;51.902;9.542;2022-07-23T15:41:27;30.50;1.00
463;DHT22;218;51.902;9.542;2022-07-23T15:43:54;30.50;1.00
463;DHT22;218;51.902;9.542;2022-07-23T15:46:22;30.40;1.00
463;DHT22;218;51.902;9.542;2022-07-23T15:48:49;30.40;1.00
463;DHT22;218;51.902;9.542;2022-07-23T15:51:18;30.30;1.00
463;DHT22;218;51.902;9.542;2022-07-23T15:53:45;30.20;1.00
463;DHT22;218;51.902;9.542;2022-07-23T15:56:12;30.20;1.00
463;DHT22;218;51.902;9.542;2022-07-23T15:58:39;30.10;1.00
463;DHT22;218;51.902;9.542;2022-07-23T16:01:06;30.10;1.00
463;DHT22;218;51.902;9.542;2022-07-23T16:03:34;30.00;1.00
463;DHT22;218;51.902;9.542;2022-07-23T16:06:02;29.90;1.00
463;DHT22;218;51.902;9.542;2022-07-23T16:08:31;29.90;1.00
463;DHT22;218;51.902;9.542;2022-07-23T16:10:58;29.80;1.00
463;DHT22;218;51.902;9.542;2022-07-23T16:13:26;29.80;1.00
463;DHT22;218;51.902;9.542;2022-07-23T16:15:53;29.70;1.00
463;DHT22;218;51.902;9.542;2022-07-23T16:18:21;29.70;1.00
463;DHT22;218;51.902;9.542;2022-07-23T16:20:51;29.60;1.00
463;DHT22;218;51.902;9.542;2022-07-23T16:23:18;29.50;1.00
463;DHT22;218;51.902;9.542;2022-07-23T16:25:47;29.50;1.00
463;DHT22;218;51.902;9.542;2022-07-23T16:28:14;29.50;1.00
463;DHT22;218;51.902;9.542;2022-07-23T16:30:41;29.40;1.00
463;DHT22;218;51.902;9.542;2022-07-23T16:33:08;29.40;1.00
463;DHT22;218;51.902;9.542;2022-07-23T16:35:37;29.30;1.00
463;DHT22;218;51.902;9.542;2022-07-23T16:38:05;29.30;1.00
463;DHT22;218;51.902;9.542;2022-07-23T16:40:32;29.20;1.00
463;DHT22;218;51.902;9.542;2022-07-23T16:43:00;29.10;1.00
463;DHT22;218;51.902;9.542;2022-07-23T16:45:28;29.10;1.00
463;DHT22;218;51.902;9.542;2022-07-23T16:47:56;29.10;1.00
463;DHT22;218;51.902;9.542;2022-07-23T16:50:23;29.00;1.00
463;DHT22;218;51.902;9.542;2022-07-23T16:52:50;29.00;1.00
463;DHT22;218;51.902;9.542;2022-07-23T16:55:17;28.90;1.00
463;DHT22;218;51.902;9.542;2022-07-23T16:57:44;28.90;1.00
463;DHT22;218;51.902;9.542;2022-07-23T17:00:14;28.80;1.00
463;DHT22;218;51.902;9.542;2022-07-23T17:02:41;28.80;1.00
463;DHT22;218;51.902;9.542;2022-07-23T17:05:09;28.70;1.00
463;DHT22;218;51.902;9.542;2022-07-23T17:07:36;28.60;1.00
463;DHT22;218;51.902;9.542;2022-07-23T17:10:04;28.60;1.00